Latest Weather Observations for Mildura

IDN60801

Issued at 7:12 pm EST Sunday 19 April 2015 (issued every 30 minutes, with the page automatically refreshed every 10 minutes)

About weather observations | Map of weather stations | Latest weather observations for NSW | Other Formats
Station Details ID: 076031 Name: MILDURA AIRPORT Lat: -34.24 Lon: 142.09 Height: 50.0 m
Data from the previous 72 hours. | See also: Recent months at Mildura
Date/Time
EST
Temp
°C
App
Temp
°C
Dew
Point
Rel
Hum
%
Delta-T
°C
Wind Press
QNH
hPa
Press
MSL
hPa
Rain
since 9 am
mm
Dir
 
Spd
km/h
Gust
km/h
Spd
kts
Gust
kts
19/07:00pm 13.3 8.6 1.0 43 5.2 S 15 24 8 13 1032.0 1032.0 0.0
19/06:30pm 13.4 9.5 1.4 44 5.1 S 11 19 6 10 1031.7 1031.7 0.0
19/06:00pm 14.1 9.8 0.7 40 5.7 S 13 20 7 11 1031.2 1031.2 0.0
19/05:30pm 15.0 9.7 -0.3 35 6.4 S 17 24 9 13 1030.8 1030.8 0.0
19/05:00pm 15.6 9.1 0.6 36 6.4 S 24 37 13 20 1030.5 1030.5 0.0
19/04:30pm 15.1 8.9 2.0 41 5.7 S 24 39 13 21 1030.4 1030.4 0.0
19/04:00pm 16.0 10.5 1.7 38 6.3 S 20 33 11 18 1030.2 1030.2 0.0
19/03:30pm 16.2 10.8 2.6 40 6.1 S 20 32 11 17 1030.1 1030.1 0.0
19/03:00pm 16.0 9.6 1.0 36 6.5 S 24 35 13 19 1029.9 1029.9 0.0
19/02:30pm 16.6 11.4 3.6 42 6.0 S 20 37 11 20 1029.7 1029.6 0.0
19/02:00pm 15.6 9.9 2.7 42 5.8 S 22 37 12 20 1029.8 1029.7 0.0
19/01:30pm 15.9 9.6 4.0 45 5.5 SSE 26 37 14 20 1029.7 1029.6 0.0
19/01:00pm 15.9 10.1 4.6 47 5.3 S 24 37 13 20 1029.9 1029.9 0.0
19/12:30pm 15.5 9.7 4.2 47 5.2 S 24 35 13 19 1030.2 1030.2 0.0
19/12:00pm 14.7 9.0 4.7 51 4.6 S 24 35 13 19 1030.4 1030.4 0.0
19/11:30am 14.6 9.3 5.1 53 4.4 S 22 35 12 19 1030.5 1030.5 0.0
19/11:00am 13.4 7.7 5.1 57 3.8 S 24 37 13 20 1030.5 1030.5 0.0
19/10:30am 13.0 7.8 5.7 61 3.4 S 22 35 12 19 1030.3 1030.3 0.0
19/10:00am 12.9 8.2 6.0 63 3.2 S 20 30 11 16 1030.0 1030.0 0.0
19/09:30am 12.5 8.0 5.9 64 3.1 S 19 32 10 17 1029.6 1029.5 0.0
19/09:00am 11.1 6.5 5.8 70 2.4 SSW 19 32 10 17 1029.1 1029.0 0.4
19/08:30am 10.5 6.0 6.1 74 2.0 SSW 19 30 10 16 1028.5 1028.4 0.4
19/08:00am 9.6 5.9 6.1 79 1.6 SSW 15 20 8 11 1027.9 1027.8 0.4
19/07:30am 8.5 5.5 6.1 85 1.1 SSW 11 17 6 9 1027.4 1027.3 0.4
19/07:00am 8.2 6.0 6.3 88 0.9 SSW 7 11 4 6 1026.8 1026.7 0.4
19/06:30am 8.8 5.5 6.4 85 1.1 SSW 13 24 7 13 1026.3 1026.2 0.4
19/06:00am 9.0 5.7 6.6 85 1.1 SSW 13 20 7 11 1025.6 1025.5 0.4
19/05:30am 9.3 6.2 7.1 86 1.0 SSW 13 22 7 12 1025.1 1025.0 0.4
19/05:00am 9.6 6.1 7.4 86 1.0 SSW 15 22 8 12 1024.7 1024.6 0.4
19/04:30am 9.8 7.2 7.9 88 0.9 SSW 11 17 6 9 1024.2 1024.1 0.4
19/04:00am 10.0 7.1 8.1 88 0.9 SW 13 20 7 11 1023.9 1023.8 0.4
19/03:30am 10.3 7.5 8.4 88 0.9 SW 13 19 7 10 1023.6 1023.5 0.4
19/03:00am 10.7 7.9 8.6 87 1.0 SW 13 20 7 11 1023.6 1023.5 0.4
19/02:30am 11.0 8.3 8.9 87 1.0 SW 13 20 7 11 1023.5 1023.4 0.4
19/02:00am 11.6 8.2 9.2 85 1.2 SSW 17 24 9 13 1023.3 1023.2 0.4
19/01:30am 12.1 8.9 9.8 86 1.2 SSW 17 26 9 14 1023.1 1023.0 0.4
19/01:00am 12.3 9.6 10.4 88 1.0 SW 15 22 8 12 1022.7 1022.6 0.4
19/12:30am 12.3 10.0 10.4 88 1.0 SSW 13 24 7 13 1022.4 1022.3 0.4
19/12:00am 12.3 9.6 10.5 89 0.9 SSW 15 22 8 12 1022.0 1021.9 0.4
 
Date/Time
EST
Temp
°C
App
Temp
°C
Dew
Point
Rel
Hum
%
Delta-T
°C
Wind Press
QNH
hPa
Press
MSL
hPa
Rain
since 9 am
mm
Dir
 
Spd
km/h
Gust
km/h
Spd
kts
Gust
kts
18/11:30pm 12.3 9.4 11.0 92 0.7 SSW 17 24 9 13 1021.7 1021.6 0.4
18/11:00pm 12.3 10.4 11.7 96 0.3 SSW 13 22 7 12 1021.4 1021.3 0.4
18/10:49pm 12.2 10.2 11.6 96 0.3 SSW 13 19 7 10 1021.1 1021.0 0.4
18/10:30pm 12.3 8.5 11.2 93 0.6 SSW 22 33 12 18 1021.0 1020.9 0.4
18/10:09pm 12.7 9.0 11.4 92 0.7 SSW 22 32 12 17 1020.5 1020.4 0.2
18/10:00pm 12.7 7.9 11.8 94 0.5 SSW 28 44 15 24 1020.5 1020.4 0.2
18/09:46pm 13.4 9.2 12.5 94 0.5 SSW 26 43 14 23 1020.3 1020.2 0.0
18/09:38pm 14.0 10.7 12.7 92 0.7 SW 22 37 12 20 1020.0 1019.9 0.0
18/09:30pm 14.8 10.3 12.7 87 1.2 SSW 28 43 15 23 1019.7 1019.6 0.0
18/09:18pm 16.4 13.1 12.8 79 2.0 WSW 22 46 12 25 1019.1 1019.0 0.0
18/09:00pm 15.9 14.6 12.5 80 1.9 W 11 15 6 8 1018.6 1018.5 0.0
18/08:30pm 15.5 14.9 12.3 81 1.8 WNW 7 9 4 5 1018.2 1018.1 0.0
18/08:00pm 15.7 14.9 11.7 77 2.2 W 7 11 4 6 1017.8 1017.7 0.0
18/07:30pm 16.5 15.3 11.6 73 2.7 W 9 15 5 8 1017.4 1017.3 0.0
18/07:00pm 17.1 15.5 11.6 70 3.0 W 11 17 6 9 1016.7 1016.7 0.0
18/06:30pm 18.1 16.5 11.7 66 3.5 W 11 15 6 8 1016.3 1016.3 0.0
18/06:00pm 18.5 16.4 11.3 63 3.9 W 13 17 7 9 1016.2 1016.2 0.0
18/05:30pm 19.6 18.0 11.6 60 4.4 WNW 11 17 6 9 1016.0 1016.0 0.0
18/05:00pm 19.4 17.3 11.2 59 4.5 WNW 13 19 7 10 1015.9 1015.9 0.0
18/04:30pm 20.0 16.8 10.1 53 5.3 WSW 17 24 9 13 1015.8 1015.8 0.0
18/04:00pm 20.2 16.6 9.7 51 5.6 W 19 28 10 15 1015.7 1015.7 0.0
18/03:30pm 19.8 15.9 9.4 51 5.5 W 20 28 11 15 1015.7 1015.7 0.0
18/03:00pm 20.0 16.6 10.4 54 5.2 W 19 32 10 17 1015.7 1015.7 0.0
18/02:30pm 19.5 16.2 11.0 58 4.6 WSW 19 26 10 14 1015.7 1015.7 0.0
18/02:00pm 18.7 15.5 11.3 62 4.0 W 19 28 10 15 1016.0 1016.0 0.0
18/01:30pm 19.0 16.3 13.0 68 3.4 W 19 28 10 15 1016.3 1016.3 0.0
18/01:00pm 18.0 15.9 12.5 70 3.1 WSW 15 22 8 12 1016.5 1016.5 0.0
18/12:30pm 17.4 14.8 12.1 71 2.9 WSW 17 26 9 14 1016.9 1016.8 0.0
18/12:00pm 16.9 15.1 12.0 73 2.7 WSW 13 19 7 10 1017.6 1017.5 0.0
18/11:30am 16.8 14.5 11.9 73 2.7 SSW 15 24 8 13 1017.9 1017.8 0.0
18/11:00am 16.1 13.0 11.5 74 2.5 SW 19 28 10 15 1017.7 1017.6 0.0
18/10:30am 15.2 12.9 11.8 80 1.8 SW 15 20 8 11 1017.8 1017.7 0.0
18/10:00am 15.0 14.0 12.3 84 1.5 SSW 9 13 5 7 1018.0 1017.9 0.0
18/09:40am 14.1 13.4 12.1 88 1.1 SSW 7 15 4 8 1017.9 1017.8 0.0
18/09:30am 13.9 12.5 12.3 90 0.9 SSW 11 19 6 10 1017.9 1017.8 0.0
18/09:00am 13.1 11.4 12.3 95 0.4 SW 13 20 7 11 1017.6 1017.5 56.2
18/08:30am 13.4 11.0 12.6 95 0.4 SSW 17 26 9 14 1016.9 1016.8 56.2
18/08:00am 13.5 11.9 12.9 96 0.3 SW 13 20 7 11 1016.6 1016.6 56.2
18/07:30am 13.8 12.7 13.0 95 0.4 SW 11 19 6 10 1016.4 1016.4 56.2
18/07:00am 13.8 12.3 13.0 95 0.4 SW 13 24 7 13 1015.8 1015.8 56.2
18/06:30am 14.1 12.7 13.3 95 0.4 SW 13 19 7 10 1015.6 1015.6 56.2
18/06:24am 14.1 12.6 13.1 94 0.6 WSW 13 20 7 11 1015.5 1015.5 56.2
18/06:00am 14.2 13.2 13.4 95 0.4 WSW 11 17 6 9 1015.5 1015.5 56.2
18/05:54am 14.3 13.7 13.5 95 0.4 WSW 9 17 5 9 1015.4 1015.4 56.2
18/05:30am 14.3 13.3 13.5 95 0.4 SW 11 17 6 9 1015.1 1015.1 56.2
18/05:00am 14.4 13.9 13.8 96 0.3 WSW 9 15 5 8 1014.7 1014.7 56.2
18/04:30am 14.6 13.4 14.0 96 0.3 SW 13 19 7 10 1014.4 1014.4 56.2
18/04:00am 14.9 14.7 14.6 98 0.2 WSW 9 15 5 8 1014.3 1014.3 56.2
18/03:56am 14.9 15.1 14.6 98 0.2 WSW 7 11 4 6 1014.3 1014.3 56.2
18/03:30am 14.9 15.1 14.6 98 0.2 WSW 7 9 4 5 1014.4 1014.4 56.2
18/03:15am 14.8 14.8 14.3 97 0.3 WSW 7 9 4 5 1014.4 1014.4 56.2
18/03:00am 14.8 14.8 14.3 97 0.3 WSW 7 13 4 7 1014.5 1014.5 56.2
18/02:30am 15.1 14.6 14.8 98 0.2 WSW 11 19 6 10 1014.7 1014.7 56.2
18/02:00am 15.4 15.0 15.1 98 0.2 WSW 11 17 6 9 1014.8 1014.8 56.2
18/01:46am 15.4 14.6 15.1 98 0.2 WSW 13 20 7 11 1014.8 1014.8 56.2
18/01:30am 15.7 15.4 15.5 99 0.1 WSW 11 22 6 12 1014.9 1014.9 56.2
18/01:27am 15.7 15.4 15.5 99 0.1 WSW 11 22 6 12 1015.0 1015.0 56.2
18/01:21am 15.8 15.6 15.6 99 0.1 WSW 11 19 6 10 1015.0 1015.0 56.2
18/01:00am 16.4 16.1 16.4 100 0.0 WSW 13 22 7 12 1014.8 1014.8 56.0
18/12:30am 16.6 17.5 16.6 100 0.0 W 7 11 4 6 1015.0 1015.0 55.8
18/12:00am 16.6 18.8 16.4 99 0.1 CALM 0 0 0 0 1015.1 1015.1 55.6
 
Date/Time
EST
Temp
°C
App
Temp
°C
Dew
Point
Rel
Hum
%
Delta-T
°C
Wind Press
QNH
hPa
Press
MSL
hPa
Rain
since 9 am
mm
Dir
 
Spd
km/h
Gust
km/h
Spd
kts
Gust
kts
17/11:30pm 16.5 18.6 16.3 99 0.1 CALM 0 0 0 0 1015.3 1015.3 55.4
17/11:24pm 16.5 18.6 16.3 99 0.1 CALM 0 0 0 0 1015.3 1015.3 55.4
17/11:00pm 16.5 18.6 16.3 99 0.1 CALM 0 0 0 0 1015.5 1015.5 55.4
17/10:30pm 16.5 17.9 16.3 99 0.1 S 4 7 2 4 1015.5 1015.5 55.4
17/10:06pm 16.5 18.2 16.3 99 0.1 NNE 2 6 1 3 1015.5 1015.5 55.4
17/10:03pm 16.5 17.9 16.3 99 0.1 NNE 4 7 2 4 1015.5 1015.5 55.4
17/10:00pm 16.5 17.5 16.3 99 0.1 NE 6 7 3 4 1015.6 1015.6 55.4
17/09:30pm 16.5 17.5 16.3 99 0.1 N 6 9 3 5 1015.7 1015.7 55.2
17/09:04pm 16.6 18.8 16.6 100 0.0 CALM 0 0 0 0 1015.8 1015.8 55.0
17/09:00pm 16.6 18.8 16.6 100 0.0 CALM 0 0 0 0 1015.6 1015.6 54.8
17/08:44pm 16.6 17.7 16.6 100 0.0 NNE 6 7 3 4 1015.5 1015.5 54.8
17/08:30pm 16.6 18.1 16.6 100 0.0 NE 4 9 2 5 1015.3 1015.3 54.8
17/08:19pm 16.6 18.5 16.6 100 0.0 NE 2 7 1 4 1015.2 1015.2 54.8
17/08:13pm 16.6 17.7 16.6 100 0.0 NE 6 7 3 4 1015.3 1015.3 54.8
17/08:00pm 16.6 17.5 16.6 100 0.0 NNE 7 9 4 5 1015.4 1015.4 54.8
17/07:50pm 16.6 17.5 16.6 100 0.0 NE 7 9 4 5 1015.2 1015.2 54.8
17/07:30pm 16.6 17.5 16.6 100 0.0 NNE 7 9 4 5 1015.1 1015.1 54.8
17/07:00pm 16.5 16.9 16.3 99 0.1 NE 9 9 5 5 1015.2 1015.2 54.4
17/06:43pm 16.5 17.9 16.3 99 0.1 SW 4 9 2 5 1015.1 1015.1 53.4
17/06:30pm 16.5 17.3 16.3 99 0.1 NE 7 11 4 6 1015.0 1015.0 53.0
17/06:00pm 16.4 17.3 16.2 99 0.1 E 6 7 3 4 1014.7 1014.7 53.0
17/05:30pm 16.5 17.3 16.3 99 0.1 ENE 7 11 4 6 1014.8 1014.8 53.0
17/05:11pm 16.4 16.5 16.4 100 0.0 NE 11 15 6 8 1015.0 1015.0 53.0
17/05:00pm 16.5 17.0 16.5 100 0.0 NE 9 11 5 6 1015.2 1015.2 53.0
17/04:30pm 16.3 16.6 16.1 99 0.1 NE 9 13 5 7 1015.6 1015.6 51.0
17/04:00pm 16.2 16.5 16.0 99 0.1 NE 9 13 5 7 1015.7 1015.7 47.0
17/03:41pm 16.1 15.6 15.9 99 0.1 NNE 13 17 7 9 1016.3 1016.3 44.8
17/03:30pm 16.1 15.6 15.9 99 0.1 NNE 13 17 7 9 1016.4 1016.4 43.8
17/03:10pm 16.0 15.8 15.7 98 0.2 NE 11 13 6 7 1016.1 1016.1 43.0
17/03:00pm 16.0 15.8 15.7 98 0.2 NE 11 13 6 7 1016.3 1016.3 42.8
17/02:30pm 15.8 15.9 15.5 98 0.2 NE 9 13 5 7 1016.4 1016.4 42.4
17/02:00pm 15.4 15.0 15.1 98 0.2 ENE 11 13 6 7 1016.9 1016.8 42.0
17/01:30pm 15.1 14.6 14.8 98 0.2 NE 11 15 6 8 1017.3 1017.2 41.4
17/01:00pm 14.5 13.4 14.3 99 0.1 NE 13 17 7 9 1018.0 1017.9 41.0
17/12:30pm 13.9 14.3 13.7 99 0.1 ENE 4 13 2 7 1018.6 1018.5 40.2
17/12:27pm 13.9 14.7 13.7 99 0.1 ENE 2 11 1 6 1018.7 1018.6 40.2
17/12:00pm 13.5 13.8 13.3 99 0.1 NE 4 9 2 5 1019.4 1019.3 38.8
17/11:30am 13.3 11.0 13.1 99 0.1 E 17 22 9 12 1019.2 1019.1 31.8
17/11:00am 13.1 11.5 12.9 99 0.1 SE 13 19 7 10 1019.9 1019.8 23.4
17/10:58am 13.2 12.1 13.0 99 0.1 SE 11 19 6 10 1020.0 1019.9 23.2
17/10:30am 13.1 11.2 12.9 99 0.1 ESE 15 22 8 12 1020.4 1020.3 15.8
17/10:00am 13.0 11.8 12.7 98 0.2 SE 11 19 6 10 1021.5 1021.4 8.2
17/09:43am 13.0 11.8 12.7 98 0.2 ESE 11 17 6 9 1021.2 1021.1 6.4
17/09:30am 13.1 12.3 12.8 98 0.2 SE 9 11 5 6 1021.6 1021.5 4.4
17/09:00am 13.1 11.4 12.6 97 0.3 SE 13 19 7 10 1021.1 1021.0 15.0
17/08:52am 13.1 11.4 12.5 96 0.3 SE 13 19 7 10 1021.1 1021.0 13.6
17/08:51am 13.1 11.4 12.5 96 0.3 SE 13 19 7 10 1021.0 1020.9 13.6
17/08:30am 13.1 10.7 12.6 97 0.3 ESE 17 20 9 11 1020.6 1020.5 12.8
17/08:10am 13.1 11.8 12.6 97 0.3 ESE 11 17 6 9 1020.9 1020.8 12.4
17/08:00am 13.1 11.4 12.6 97 0.3 ESE 13 17 7 9 1020.9 1020.8 11.6
17/07:56am 13.1 11.4 12.6 97 0.3 ESE 13 17 7 9 1021.1 1021.0 11.6
17/07:42am 13.0 11.3 12.5 97 0.3 ESE 13 19 7 10 1020.9 1020.8 11.2
17/07:38am 13.1 11.4 12.6 97 0.3 ESE 13 19 7 10 1021.0 1020.9 11.0
17/07:35am 13.1 11.4 12.6 97 0.3 ESE 13 20 7 11 1020.9 1020.8 10.8
17/07:30am 13.1 11.1 12.6 97 0.3 ESE 15 20 8 11 1020.7 1020.6 10.6
17/07:17am 13.1 11.4 12.5 96 0.3 ESE 13 20 7 11 1020.7 1020.6 10.0
17/07:00am 13.0 10.9 12.4 96 0.3 ESE 15 19 8 10 1020.6 1020.5 9.2
17/06:34am 13.0 10.5 12.4 96 0.3 ESE 17 24 9 13 1020.9 1020.8 8.6
17/06:30am 13.0 10.9 12.4 96 0.3 ESE 15 22 8 12 1020.8 1020.7 8.6
17/06:00am 13.1 10.6 12.3 95 0.4 E 17 24 9 13 1020.9 1020.8 8.2
17/05:45am 13.2 11.2 12.6 96 0.3 E 15 24 8 13 1021.1 1021.0 8.0
17/05:30am 13.3 11.7 12.8 97 0.3 E 13 20 7 11 1021.3 1021.2 7.8
17/05:13am 13.4 12.6 12.9 97 0.3 E 9 15 5 8 1021.5 1021.4 7.4
17/05:06am 13.4 12.6 12.9 97 0.3 E 9 13 5 7 1021.5 1021.4 7.0
17/05:00am 13.3 12.5 12.8 97 0.3 E 9 15 5 8 1021.8 1021.7 6.8
17/04:30am 13.2 12.3 12.7 97 0.3 ESE 9 13 5 7 1021.5 1021.4 6.8
17/04:00am 13.1 13.9 12.5 96 0.3 CALM 0 0 0 0 1021.7 1021.6 6.4
17/03:30am 13.0 12.4 12.4 96 0.3 ESE 7 11 4 6 1022.0 1021.9 5.8
17/03:00am 13.0 11.9 12.1 94 0.5 SE 9 13 5 7 1022.2 1022.1 4.6
17/02:57am 13.0 11.9 12.1 94 0.5 SE 9 13 5 7 1022.2 1022.1 4.4
17/02:38am 13.1 13.0 12.0 93 0.6 SSE 4 7 2 4 1022.9 1022.8 3.8
17/02:30am 13.2 12.7 12.1 93 0.6 SE 6 9 3 5 1022.8 1022.7 3.6
17/02:00am 13.4 12.3 12.1 92 0.7 SE 9 15 5 8 1023.0 1022.9 3.0
17/01:30am 13.7 13.1 12.4 92 0.7 SSE 7 11 4 6 1023.3 1023.2 2.6
17/01:00am 13.7 12.4 12.4 92 0.7 SSE 11 17 6 9 1023.2 1023.1 2.4
17/12:30am 13.9 12.2 12.3 90 0.9 S 13 20 7 11 1023.5 1023.4 2.0
17/12:00am 14.4 13.8 13.6 95 0.4 S 9 15 5 8 1023.4 1023.3 2.0
 
Date/Time
EST
Temp
°C
App
Temp
°C
Dew
Point
Rel
Hum
%
Delta-T
°C
Wind Press
QNH
hPa
Press
MSL
hPa
Rain
since 9 am
mm
Dir
 
Spd
km/h
Gust
km/h
Spd
kts
Gust
kts
16/11:30pm 14.4 12.7 13.6 95 0.4 SE 15 22 8 12 1023.3 1023.2 2.0
16/11:00pm 14.4 13.1 13.6 95 0.4 ESE 13 22 7 12 1023.8 1023.7 2.0
16/10:30pm 14.6 13.2 13.5 93 0.6 SE 13 19 7 10 1024.3 1024.2 1.8
16/10:00pm 15.0 13.8 13.9 93 0.6 SE 13 19 7 10 1024.5 1024.4 1.0
16/09:30pm 15.2 14.8 14.1 93 0.6 ESE 9 13 5 7 1024.6 1024.5 0.8
16/09:00pm 15.4 15.4 14.1 92 0.7 ESE 7 9 4 5 1024.9 1024.8 0.4
16/08:30pm 15.6 15.5 14.0 90 0.9 S 7 9 4 5 1025.0 1024.9 0.4
16/08:00pm 16.2 15.6 13.5 84 1.5 SSE 9 13 5 7 1024.8 1024.7 0.2
16/07:30pm 16.6 15.1 13.1 80 2.0 SSE 13 20 7 11 1024.6 1024.5 0.2

Other Formats:

Comma delimited format used in spreadsheet applications
http://www.bom.gov.au/fwo/IDN60801/IDN60801.94693.axf

JavaScript Object Notation format (JSON) in row-major order
http://www.bom.gov.au/fwo/IDN60801/IDN60801.94693.json